createdAt,value
2018-04-23T00:04:17.492Z,25.53
2018-04-23T00:09:13.300Z,22.37
2018-04-23T00:14:10.530Z,19.80
2018-04-23T00:19:08.167Z,14.50
2018-04-23T00:24:02.825Z,15.33
2018-04-23T00:28:57.979Z,14.07
2018-04-23T00:33:52.444Z,18.23
2018-04-23T00:38:48.964Z,11.80
2018-04-23T00:43:45.690Z,13.73
2018-04-23T00:48:40.723Z,14.90
2018-04-23T00:53:41.142Z,14.57
2018-04-23T00:58:36.561Z,16.07
2018-04-23T01:03:32.285Z,12.97
2018-04-23T01:08:29.730Z,14.33
2018-04-23T01:13:26.882Z,14.23
2018-04-23T01:18:24.613Z,13.27
2018-04-23T01:23:19.756Z,13.17
2018-04-23T01:28:14.656Z,16.43
2018-04-23T01:33:10.368Z,12.80
2018-04-23T01:38:04.992Z,15.00
2018-04-23T01:42:59.735Z,13.30
2018-04-23T01:47:55.493Z,13.47
2018-04-23T01:52:50.276Z,11.97
2018-04-23T01:57:48.075Z,13.70
2018-04-23T02:02:45.414Z,11.47
2018-04-23T02:07:43.264Z,13.97
2018-04-23T02:12:39.312Z,11.13
2018-04-23T02:17:34.119Z,11.30
2018-04-23T02:22:28.941Z,11.43
2018-04-23T02:27:23.779Z,14.97
2018-04-23T02:32:19.147Z,16.23
2018-04-23T02:37:15.041Z,19.90
2018-04-23T02:42:09.597Z,16.97
2018-04-23T02:47:05.567Z,19.17
2018-04-23T02:52:02.526Z,13.60
2018-04-23T02:56:57.264Z,17.30
2018-04-23T03:01:52.716Z,14.47
2018-04-23T03:06:47.671Z,17.80
2018-04-23T03:11:42.649Z,18.80
2018-04-23T03:16:37.398Z,13.87
2018-04-23T03:21:33.109Z,18.77
2018-04-23T03:26:27.493Z,14.10
2018-04-23T03:31:21.888Z,20.33
2018-04-23T03:36:16.425Z,14.30
2018-04-23T03:41:10.984Z,19.77
2018-04-23T03:46:05.395Z,12.50
2018-04-23T03:50:59.780Z,12.10
2018-04-23T03:55:54.338Z,15.93
2018-04-23T04:00:49.201Z,13.60
2018-04-23T04:05:43.834Z,16.93
2018-04-23T04:10:38.751Z,17.13
2018-04-23T04:15:50.296Z,14.07
2018-04-23T04:20:45.122Z,19.10
2018-04-23T04:25:39.727Z,15.40
2018-04-23T04:30:35.175Z,16.13
2018-04-23T04:35:30.002Z,22.00
2018-04-23T04:40:24.678Z,14.37
2018-04-23T04:45:21.456Z,16.80
2018-04-23T04:50:16.611Z,13.23
2018-04-23T04:55:11.143Z,18.07
2018-04-23T05:00:05.007Z,12.47
2018-04-23T05:04:59.544Z,11.80
2018-04-23T05:09:53.911Z,20.50
2018-04-23T05:14:48.276Z,13.83
2018-04-23T05:19:43.662Z,14.77
2018-04-23T05:24:38.250Z,11.83
2018-04-23T05:29:32.660Z,8.80
2018-04-23T05:34:27.943Z,13.17
2018-04-23T05:39:23.303Z,13.30
2018-04-23T05:44:18.040Z,11.00
2018-04-23T05:49:12.552Z,10.60
2018-04-23T05:54:07.675Z,11.73
2018-04-23T05:59:02.024Z,11.90
2018-04-23T06:03:56.408Z,8.33
2018-04-23T06:08:51.516Z,8.13
2018-04-23T06:13:46.718Z,12.17
2018-04-23T06:18:41.477Z,8.73
2018-04-23T06:23:36.037Z,7.90
2018-04-23T06:28:30.378Z,9.03
2018-04-23T06:33:24.670Z,12.07
2018-04-23T06:38:19.947Z,10.63
2018-04-23T06:43:14.354Z,12.53
2018-04-23T06:48:08.750Z,13.93
2018-04-23T06:53:03.164Z,12.27
2018-04-23T06:57:57.513Z,12.90
2018-04-23T07:02:51.909Z,9.67
2018-04-23T07:07:47.018Z,11.33
2018-04-23T07:12:42.367Z,12.83
2018-04-23T07:17:37.129Z,11.90
2018-04-23T07:22:31.475Z,14.20
2018-04-23T07:27:25.863Z,19.00
2018-04-23T07:32:20.980Z,13.80
2018-04-23T07:37:16.377Z,9.47
2018-04-23T07:42:10.821Z,12.13
2018-04-23T07:47:05.962Z,16.80
2018-04-23T07:52:01.725Z,14.00
2018-04-23T07:56:56.523Z,14.77
2018-04-23T08:01:51.924Z,11.13
2018-04-23T08:06:46.708Z,13.63
2018-04-23T08:11:42.602Z,11.50
2018-04-23T08:16:38.132Z,14.27
2018-04-23T08:21:32.936Z,11.67
2018-04-23T08:26:28.449Z,12.13
2018-04-23T08:31:23.162Z,13.43
2018-04-23T08:36:17.784Z,13.67
2018-04-23T08:41:13.268Z,11.30
2018-04-23T08:46:08.000Z,13.77
2018-04-23T08:51:02.754Z,14.50
2018-04-23T08:55:57.474Z,11.23
2018-04-23T09:00:52.267Z,12.70
2018-04-23T09:05:47.651Z,10.63
2018-04-23T09:10:42.286Z,9.53
2018-04-23T09:15:37.008Z,11.70
2018-04-23T09:20:32.411Z,11.47
2018-04-23T09:25:27.090Z,9.77
2018-04-23T09:30:21.802Z,11.50
2018-04-23T09:35:16.440Z,10.80
2018-04-23T09:40:11.301Z,9.67
2018-04-23T09:45:06.111Z,11.63
2018-04-23T09:50:00.782Z,14.73
2018-04-23T09:54:55.845Z,11.57
2018-04-23T09:59:50.516Z,11.83
2018-04-23T10:04:45.162Z,11.97
2018-04-23T10:09:39.817Z,12.67
2018-04-23T10:14:34.448Z,10.40
2018-04-23T10:19:28.809Z,13.13
2018-04-23T10:24:23.193Z,13.97
2018-04-23T10:29:17.588Z,12.37
2018-04-23T10:34:11.972Z,11.70
2018-04-23T10:39:06.408Z,10.43
2018-04-23T10:44:00.786Z,12.40
2018-04-23T10:48:55.279Z,11.43
2018-04-23T10:53:49.754Z,10.87
2018-04-23T10:58:44.865Z,7.87
2018-04-23T11:03:39.982Z,7.40
2018-04-23T11:08:35.109Z,8.23
2018-04-23T11:13:30.228Z,9.93
2018-04-23T11:18:25.776Z,10.23
2018-04-23T11:23:20.118Z,8.33
2018-04-23T11:28:14.492Z,10.60
2018-04-23T11:33:08.839Z,9.00
2018-04-23T11:38:03.210Z,7.93
2018-04-23T11:42:57.735Z,7.87
2018-04-23T11:47:52.078Z,7.17
2018-04-23T11:52:47.193Z,6.57
2018-04-23T11:57:42.320Z,6.80
2018-04-23T12:02:37.504Z,7.03
2018-04-23T12:07:31.877Z,6.30
2018-04-23T12:12:26.229Z,7.37
2018-04-23T12:17:20.717Z,6.63
2018-04-23T12:22:15.086Z,6.63
2018-04-23T12:27:09.443Z,6.83
2018-04-23T12:32:04.642Z,7.23
2018-04-23T12:36:58.810Z,8.20
2018-04-23T12:41:53.421Z,8.33
2018-04-23T12:46:47.763Z,6.17
2018-04-23T12:51:42.228Z,6.17
2018-04-23T12:56:37.363Z,6.40
2018-04-23T13:01:31.749Z,7.00
2018-04-23T13:06:26.096Z,5.90
2018-04-23T13:11:20.458Z,9.30
2018-04-23T13:16:14.830Z,7.00
2018-04-23T13:21:09.215Z,5.70
2018-04-23T13:26:04.385Z,8.80
2018-04-23T13:30:58.723Z,5.57
2018-04-23T13:35:53.190Z,5.73
2018-04-23T13:40:47.554Z,4.10
2018-04-23T13:45:42.676Z,4.13
2018-04-23T13:50:37.914Z,6.60
2018-04-23T13:55:32.312Z,5.23
2018-04-23T14:00:26.667Z,3.73
2018-04-23T14:05:21.090Z,5.57
2018-04-23T14:10:15.634Z,7.63
2018-04-23T14:15:10.202Z,5.07
2018-04-23T14:20:04.689Z,5.13
2018-04-23T14:24:59.070Z,8.07
2018-04-23T14:29:53.830Z,6.73
2018-04-23T14:34:48.479Z,9.13
2018-04-23T14:39:43.007Z,5.43
2018-04-23T14:44:37.356Z,6.37
2018-04-23T14:49:32.480Z,7.53
2018-04-23T14:54:28.054Z,7.47
2018-04-23T14:59:22.631Z,7.07
2018-04-23T15:04:17.932Z,10.60
2018-04-23T15:09:13.402Z,9.03
2018-04-23T15:14:07.953Z,8.80
2018-04-23T15:19:02.567Z,9.77
2018-04-23T15:23:58.016Z,7.77
2018-04-23T15:28:52.479Z,9.27
2018-04-23T15:33:46.867Z,8.17
2018-04-23T15:38:41.256Z,10.07
2018-04-23T15:43:35.968Z,10.10
2018-04-23T15:48:30.483Z,7.97
2018-04-23T15:53:24.853Z,8.57
2018-04-23T15:58:19.236Z,6.73
2018-04-23T16:03:14.351Z,7.67
2018-04-23T16:08:09.499Z,6.17
2018-04-23T16:13:04.437Z,6.10
2018-04-23T16:17:59.061Z,5.63
2018-04-23T16:22:53.431Z,8.17
2018-04-23T16:27:47.585Z,8.73
2018-04-23T16:32:42.080Z,5.60
2018-04-23T16:37:36.445Z,8.93
2018-04-23T16:42:31.159Z,8.73
2018-04-23T16:47:25.531Z,6.20
2018-04-23T16:52:21.020Z,7.67
2018-04-23T16:57:15.380Z,8.40
2018-04-23T17:02:09.835Z,5.77
2018-04-23T17:07:04.083Z,6.63
2018-04-23T17:11:58.451Z,5.27
2018-04-23T17:16:53.976Z,6.27
2018-04-23T17:21:48.338Z,7.77
2018-04-23T17:26:42.706Z,11.37
2018-04-23T17:31:37.832Z,5.53
2018-04-23T17:36:32.361Z,5.50
2018-04-23T17:41:26.723Z,6.53
2018-04-23T17:46:21.836Z,7.83
2018-04-23T17:51:16.186Z,7.40
2018-04-23T17:56:10.544Z,7.50
2018-04-23T18:01:05.679Z,6.10
2018-04-23T18:06:01.012Z,8.93
2018-04-23T18:10:55.382Z,6.13
2018-04-23T18:15:49.904Z,7.47
2018-04-23T18:20:45.091Z,6.97
2018-04-23T18:25:39.559Z,5.47
2018-04-23T18:30:34.164Z,5.30
2018-04-23T18:35:28.638Z,6.87
2018-04-23T18:40:23.881Z,8.27
2018-04-23T18:45:18.319Z,13.03
2018-04-23T18:50:13.021Z,8.07
2018-04-23T18:55:07.372Z,6.87
2018-04-23T19:00:02.521Z,8.60
2018-04-23T19:04:56.979Z,11.30
2018-04-23T19:09:51.368Z,8.77
2018-04-23T19:14:45.773Z,12.63
2018-04-23T19:19:41.049Z,9.97
2018-04-23T19:24:36.168Z,10.40
2018-04-23T19:29:31.352Z,11.17
2018-04-23T19:34:25.743Z,11.87
2018-04-23T19:39:20.112Z,14.47
2018-04-23T19:44:14.532Z,10.03
2018-04-23T19:49:08.962Z,8.37
2018-04-23T19:54:03.580Z,11.60
2018-04-23T19:58:59.246Z,9.93
2018-04-23T20:03:53.985Z,12.70
2018-04-23T20:08:48.885Z,11.60
2018-04-23T20:13:44.365Z,10.53
2018-04-23T20:18:38.796Z,10.10
2018-04-23T20:23:34.788Z,8.50
2018-04-23T20:28:30.921Z,9.57
2018-04-23T20:33:26.112Z,11.50
2018-04-23T20:38:22.933Z,10.00
2018-04-23T20:43:17.737Z,12.00
2018-04-23T20:48:12.679Z,9.70
2018-04-23T20:53:08.195Z,8.97
2018-04-23T20:58:04.479Z,10.13
2018-04-23T21:02:59.116Z,8.83
2018-04-23T21:07:53.774Z,13.10
2018-04-23T21:12:49.119Z,13.90
2018-04-23T21:17:44.888Z,7.87
2018-04-23T21:22:39.724Z,8.70
2018-04-23T21:27:34.739Z,9.97
2018-04-23T21:32:29.443Z,9.87
2018-04-23T21:37:25.083Z,8.43
2018-04-23T21:42:20.526Z,8.60
2018-04-23T21:47:16.186Z,10.20
2018-04-23T21:52:12.009Z,8.07
2018-04-23T21:57:06.901Z,7.63
2018-04-23T22:02:02.170Z,8.93
2018-04-23T22:06:57.013Z,6.73
2018-04-23T22:11:52.857Z,6.70
2018-04-23T22:16:47.623Z,8.73
2018-04-23T22:21:43.622Z,9.80
2018-04-23T22:26:40.380Z,5.53
2018-04-23T22:31:35.247Z,3.60
2018-04-23T22:36:30.326Z,7.10
2018-04-23T22:41:25.216Z,6.07
2018-04-23T22:46:22.333Z,5.83
2018-04-23T22:51:17.593Z,7.50
2018-04-23T22:56:12.381Z,7.47
2018-04-23T23:01:08.861Z,6.33
2018-04-23T23:06:03.485Z,8.23
2018-04-23T23:10:59.415Z,7.53
2018-04-23T23:15:53.822Z,11.73
2018-04-23T23:20:48.370Z,5.57
2018-04-23T23:25:43.475Z,7.07
2018-04-23T23:30:38.151Z,6.73
2018-04-23T23:35:32.640Z,6.30
2018-04-23T23:40:26.996Z,9.70
2018-04-23T23:45:21.526Z,5.53
2018-04-23T23:50:16.423Z,7.63
2018-04-23T23:55:11.695Z,13.03
